createdAt,value
2023-02-22T00:04:59.897Z,1.98
2023-02-22T00:10:01.856Z,2.20
2023-02-22T00:15:03.954Z,2.08
2023-02-22T00:20:07.249Z,1.70
2023-02-22T00:25:10.175Z,1.88
2023-02-22T00:30:21.536Z,2.25
2023-02-22T00:35:28.768Z,2.08
2023-02-22T00:40:33.588Z,2.30
2023-02-22T00:45:37.128Z,2.10
2023-02-22T00:50:39.527Z,2.28
2023-02-22T00:55:41.422Z,2.20
2023-02-22T01:00:44.082Z,2.58
2023-02-22T01:05:46.451Z,2.17
2023-02-22T01:10:48.363Z,2.38
2023-02-22T01:15:50.241Z,1.95
2023-02-22T01:20:52.298Z,2.17
2023-02-22T01:25:54.392Z,2.45
2023-02-22T01:30:56.930Z,1.83
2023-02-22T01:36:00.000Z,2.33
2023-02-22T01:41:01.963Z,2.15
2023-02-22T01:46:21.399Z,2.35
2023-02-22T01:51:37.817Z,2.25
2023-02-22T01:56:46.866Z,2.13
2023-02-22T02:01:49.330Z,2.08
2023-02-22T02:06:53.650Z,2.08
2023-02-22T02:11:55.956Z,2.40
2023-02-22T02:17:01.666Z,1.55
2023-02-22T02:22:19.021Z,2.58
2023-02-22T02:27:24.555Z,2.08
2023-02-22T02:32:35.347Z,2.55
2023-02-22T02:37:48.191Z,1.73
2023-02-22T02:42:56.043Z,1.80
2023-02-22T02:48:01.448Z,1.85
2023-02-22T02:53:07.447Z,1.88
2023-02-22T02:58:11.528Z,2.10
2023-02-22T03:03:28.606Z,1.73
2023-02-22T03:08:50.694Z,1.67
2023-02-22T03:14:37.617Z,1.65
2023-02-22T03:19:54.030Z,1.65
2023-02-22T03:25:22.111Z,1.48
2023-02-22T03:30:33.334Z,2.10
2023-02-22T03:35:43.952Z,1.60
2023-02-22T03:40:49.065Z,1.63
2023-02-22T03:45:51.616Z,1.38
2023-02-22T03:50:53.960Z,1.40
2023-02-22T03:55:58.590Z,1.63
2023-02-22T04:01:00.824Z,1.45
2023-02-22T04:06:03.977Z,1.52
2023-02-22T04:11:06.546Z,1.20
2023-02-22T04:16:08.601Z,1.25
2023-02-22T04:21:10.720Z,1.58
2023-02-22T04:26:12.795Z,1.55
2023-02-22T04:31:15.937Z,1.17
2023-02-22T04:36:18.454Z,1.00
2023-02-22T04:41:20.677Z,1.20
2023-02-22T04:46:22.758Z,1.10
2023-02-22T04:51:27.677Z,1.25
2023-02-22T04:56:29.490Z,1.30
2023-02-22T05:01:33.885Z,1.10
2023-02-22T05:06:35.948Z,1.15
2023-02-22T05:11:38.227Z,1.27
2023-02-22T05:16:40.252Z,1.17
2023-02-22T05:21:42.095Z,1.13
2023-02-22T05:26:47.067Z,1.05
2023-02-22T05:31:49.113Z,1.20
2023-02-22T05:36:50.924Z,1.13
2023-02-22T05:41:52.954Z,1.00
2023-02-22T05:46:54.882Z,1.17
2023-02-22T05:51:59.803Z,1.15
2023-02-22T05:57:02.090Z,1.27
2023-02-22T06:02:04.536Z,0.90
2023-02-22T06:07:06.798Z,1.27
2023-02-22T06:12:09.329Z,0.93
2023-02-22T06:17:11.276Z,1.13
2023-02-22T06:22:18.318Z,1.20
2023-02-22T06:27:20.098Z,0.88
2023-02-22T06:32:21.989Z,1.10
2023-02-22T06:37:24.032Z,1.00
2023-02-22T06:42:26.456Z,1.10
2023-02-22T06:47:29.085Z,0.98
2023-02-22T06:52:30.967Z,0.98
2023-02-22T06:57:33.007Z,1.00
2023-02-22T07:02:35.293Z,0.93
2023-02-22T07:07:38.994Z,0.90
2023-02-22T07:12:40.885Z,1.13
2023-02-22T07:17:42.978Z,1.15
2023-02-22T07:22:44.799Z,1.10
2023-02-22T07:27:46.923Z,1.25
2023-02-22T07:32:49.739Z,0.90
2023-02-22T07:37:54.016Z,1.02
2023-02-22T07:43:02.517Z,1.50
2023-02-22T07:48:05.973Z,1.20
2023-02-22T07:53:13.522Z,1.52
2023-02-22T07:58:15.939Z,1.20
2023-02-22T08:03:20.349Z,1.45
2023-02-22T08:08:23.231Z,1.33
2023-02-22T08:13:25.407Z,1.17
2023-02-22T08:18:27.489Z,1.42
2023-02-22T08:23:29.718Z,2.28
2023-02-22T08:28:32.014Z,1.80
2023-02-22T08:33:33.918Z,1.33
2023-02-22T08:38:35.866Z,1.30
2023-02-22T08:43:38.012Z,1.27
2023-02-22T08:48:49.528Z,1.30
2023-02-22T08:53:51.478Z,2.17
2023-02-22T08:58:53.543Z,2.20
2023-02-22T09:03:56.496Z,1.95
2023-02-22T09:08:59.090Z,2.25
2023-02-22T09:14:00.890Z,1.92
2023-02-22T09:19:02.958Z,2.30
2023-02-22T09:24:08.839Z,1.80
2023-02-22T09:29:11.898Z,1.90
2023-02-22T09:34:16.833Z,1.80
2023-02-22T09:39:18.982Z,1.40
2023-02-22T09:44:29.529Z,1.35
2023-02-22T09:49:47.761Z,1.75
2023-02-22T09:55:06.163Z,1.90
2023-02-22T10:00:21.605Z,1.52
2023-02-22T10:05:29.681Z,1.20
2023-02-22T10:10:36.728Z,1.60
2023-02-22T10:15:51.708Z,1.10
2023-02-22T10:21:07.983Z,1.60
2023-02-22T10:26:17.400Z,1.55
2023-02-22T10:31:29.047Z,1.20
2023-02-22T10:36:31.072Z,1.40
2023-02-22T10:41:41.454Z,1.20
2023-02-22T10:46:45.143Z,1.55
2023-02-22T10:51:57.842Z,1.30
2023-02-22T10:57:00.955Z,1.35
2023-02-22T11:02:22.007Z,1.10
2023-02-22T11:07:30.563Z,1.30
2023-02-22T11:12:40.046Z,1.27
2023-02-22T11:17:41.925Z,1.45
2023-02-22T11:22:44.181Z,1.58
2023-02-22T11:27:47.184Z,1.33
2023-02-22T11:32:55.208Z,1.70
2023-02-22T11:38:29.238Z,1.20
2023-02-22T11:43:31.837Z,1.13
2023-02-22T11:48:36.919Z,1.20
2023-02-22T11:53:47.734Z,1.40
2023-02-22T11:59:08.199Z,1.48
2023-02-22T12:04:52.324Z,1.20
2023-02-22T12:10:12.050Z,0.95
2023-02-22T12:15:40.730Z,1.25
2023-02-22T12:20:51.988Z,1.00
2023-02-22T12:25:59.102Z,1.30
2023-02-22T12:31:34.283Z,0.95
2023-02-22T12:36:42.391Z,1.23
2023-02-22T12:41:49.146Z,1.10
2023-02-22T12:46:53.858Z,1.67
2023-02-22T12:52:21.906Z,1.15
2023-02-22T12:57:49.244Z,1.30
2023-02-22T13:03:03.595Z,1.70
2023-02-22T13:08:34.758Z,1.17
2023-02-22T13:14:07.080Z,1.00
2023-02-22T13:19:20.461Z,0.85
2023-02-22T13:24:45.494Z,1.40
2023-02-22T13:29:55.552Z,0.77
2023-02-22T13:35:29.448Z,0.93
2023-02-22T13:40:49.098Z,1.10
2023-02-22T13:46:05.813Z,0.80
2023-02-22T13:51:47.552Z,1.10
2023-02-22T13:56:51.682Z,1.08
2023-02-22T14:01:55.274Z,1.10
2023-02-22T14:07:02.169Z,1.25
2023-02-22T14:12:04.373Z,1.02
2023-02-22T14:17:27.948Z,0.90
2023-02-22T14:22:30.051Z,1.15
2023-02-22T14:27:41.959Z,1.45
2023-02-22T14:32:44.027Z,1.10
2023-02-22T14:37:54.271Z,1.23
2023-02-22T14:43:04.657Z,1.02
2023-02-22T14:48:25.177Z,1.45
2023-02-22T14:53:37.446Z,0.95
2023-02-22T14:58:55.363Z,1.40
2023-02-22T15:04:07.832Z,1.05
2023-02-22T15:09:28.756Z,0.95
2023-02-22T15:14:42.045Z,1.00
2023-02-22T15:19:44.552Z,1.10
2023-02-22T15:24:59.169Z,1.20
2023-02-22T15:30:05.141Z,1.10
2023-02-22T15:35:27.136Z,1.30
2023-02-22T15:40:35.271Z,1.10
2023-02-22T15:45:43.385Z,1.10
2023-02-22T15:51:14.530Z,1.05
2023-02-22T15:56:30.455Z,1.20
2023-02-22T16:01:41.334Z,0.80
2023-02-22T16:06:44.639Z,0.90
2023-02-22T16:11:47.691Z,1.27
2023-02-22T16:16:50.269Z,1.10
2023-02-22T16:21:55.106Z,1.02
2023-02-22T16:27:17.603Z,1.38
2023-02-22T16:32:19.475Z,0.68
2023-02-22T16:37:23.530Z,1.05
2023-02-22T16:42:25.637Z,1.20
2023-02-22T16:47:27.786Z,1.10
2023-02-22T16:52:29.606Z,1.10
2023-02-22T16:57:32.686Z,1.38
2023-02-22T17:02:34.793Z,1.10
2023-02-22T17:07:37.242Z,1.30
2023-02-22T17:12:44.459Z,1.27
2023-02-22T17:17:46.369Z,1.10
2023-02-22T17:22:48.338Z,1.20
2023-02-22T17:27:50.295Z,1.25
2023-02-22T17:32:52.808Z,1.60
2023-02-22T17:37:54.791Z,1.10
2023-02-22T17:42:58.204Z,1.33
2023-02-22T17:48:00.050Z,1.35
2023-02-22T17:53:02.082Z,1.00
2023-02-22T17:58:05.034Z,1.10
2023-02-22T18:03:09.310Z,1.40
2023-02-22T18:08:11.281Z,1.40
2023-02-22T18:13:19.044Z,1.70
2023-02-22T18:18:22.662Z,1.95
2023-02-22T18:23:28.062Z,2.42
2023-02-22T18:28:31.558Z,2.33
2023-02-22T18:33:33.508Z,1.70
2023-02-22T18:38:36.177Z,1.52
2023-02-22T18:43:38.629Z,1.80
2023-02-22T18:48:40.949Z,2.17
2023-02-22T18:53:48.103Z,1.83
2023-02-22T18:58:54.459Z,1.80
2023-02-22T19:03:56.637Z,1.90
2023-02-22T19:09:01.484Z,1.48
2023-02-22T19:14:06.758Z,2.25
2023-02-22T19:19:08.527Z,2.67
2023-02-22T19:24:10.367Z,2.50
2023-02-22T19:29:12.489Z,2.92
2023-02-22T19:34:15.815Z,3.70
2023-02-22T19:39:20.612Z,3.17
2023-02-22T19:44:23.876Z,2.95
2023-02-22T19:49:28.118Z,3.45
2023-02-22T19:54:30.140Z,4.18
2023-02-22T19:59:32.010Z,2.80
2023-02-22T20:04:34.685Z,3.10
2023-02-22T20:09:39.825Z,3.33
2023-02-22T20:14:42.233Z,3.95
2023-02-22T20:19:44.087Z,4.40
2023-02-22T20:24:47.703Z,3.47
2023-02-22T20:29:50.089Z,3.28
2023-02-22T20:34:52.237Z,4.20
2023-02-22T20:39:54.122Z,3.65
2023-02-22T20:44:55.984Z,3.25
2023-02-22T20:49:58.660Z,3.40
2023-02-22T20:55:02.075Z,3.60
2023-02-22T21:00:05.891Z,4.32
2023-02-22T21:05:07.788Z,3.47
2023-02-22T21:10:09.924Z,3.83
2023-02-22T21:15:11.960Z,3.78
2023-02-22T21:20:14.566Z,3.20
2023-02-22T21:25:17.137Z,3.15
2023-02-22T21:30:19.759Z,2.33
2023-02-22T21:35:25.339Z,4.38
2023-02-22T21:40:28.126Z,4.68
2023-02-22T21:45:30.228Z,6.65
2023-02-22T21:50:33.017Z,6.35
2023-02-22T21:55:35.262Z,7.07
2023-02-22T22:00:42.895Z,5.85
2023-02-22T22:05:46.329Z,5.63
2023-02-22T22:10:55.503Z,4.68
2023-02-22T22:16:03.572Z,5.55
2023-02-22T22:21:10.938Z,5.05
2023-02-22T22:26:15.136Z,4.43
2023-02-22T22:31:18.035Z,5.03
2023-02-22T22:36:22.206Z,4.13
2023-02-22T22:41:25.193Z,3.90
2023-02-22T22:46:27.472Z,3.58
2023-02-22T22:51:29.269Z,4.50
2023-02-22T22:56:35.421Z,4.75
2023-02-22T23:01:40.955Z,3.25
2023-02-22T23:06:45.411Z,3.70
2023-02-22T23:11:54.010Z,4.00
2023-02-22T23:17:03.860Z,3.75
2023-02-22T23:22:07.375Z,4.40
2023-02-22T23:27:11.030Z,4.70
2023-02-22T23:32:14.779Z,3.97
2023-02-22T23:37:20.967Z,3.35
2023-02-22T23:42:23.274Z,3.60
2023-02-22T23:47:25.426Z,3.40
2023-02-22T23:52:30.170Z,4.47
2023-02-22T23:57:33.156Z,4.35
